Avon, MN (56310)

11:27 AM CDT on April 25, 2017 (GMT -0500)
Stratford Addition | | Change Station

Elev 1125 ft 45.60 °N, 94.47 °W | Updated 1 second ago

Mostly Cloudy
Mostly Cloudy
52.2 °F
Feels Like 52.2 °F
N
8.0
Wind Variable Wind from NW

Today
High -- | Low -- °F
--% Chance of Precip.
Yesterday
High -- | Low -- °F
Precip. -- in
Pressure 29.59 in
Visibility 10.0 miles
Clouds Clear
Dew Point 44 °F
Humidity 74%
Rainfall 0.00 in
Snow Depth Not available.
6:14 AM 8:17 PM
Waning Crescent, 1% visible
METAR KSTC 251553Z 34009KT 10SM CLR 12/07 A2956 RMK AO2 SLP018 T01170067
Pressure 29.59 in
Visibility 10.0 miles
Clouds Clear
Dew Point 44 °F
Humidity 74%
Rainfall 0.00 in
Snow Depth Not available.
6:14 AM 8:17 PM
Waning Crescent, 1% visible
METAR KSTC 251553Z 34009KT 10SM CLR 12/07 A2956 RMK AO2 SLP018 T01170067

Get Severe Weather Alerts

Thanks for signing up!

Be on the lookout for a verification email in your inbox.

You'll start receiving the daily forecast at 8 AM.

×

10-Day Weather Forecast

Almanac

Astronomy

Apr. 25, 2017 Rise Set
Actual Time
Civil Twilight
Nautical Twilight
Astronomical Twilight
Moon
Length of Visible Light
Length of Day
Tomorrow will be .
, % of the Moon is Illuminated

Today's Extremes

State Highs State Lows

Community

WunderPhotos

WunderBlog® & News

Nearby

Air Quality

  Air Quality AQ Index Pollutant
Not available.

Snow Depth

Station Depth Elevation

Earthquake Activity

City Distance Mag. Time & Date
Minimum magnitude displayed is 2.5.

Coastal Water Temperatures

Place Temperature

Stations

Nearby Weather Stations

Station Location Temp. Windchill Dew Point Humidity Wind Precip. Elev Updated Type
                   

Watches & Warnings

There are currently no watches in effect.